Time;durP1;ratioP1;P1;durP2;ratioP2;P2;SDS_P1;SDS_P2;PMS_P1;PMS_P2;Temp;Humidity;BMP_temperature;BMP_pressure;BME280_temperature;BME280_humidity;BME280_pressure;Samples;Min_cycle;Max_cycle;Signal;HPM_P1;HPM_P2
2023/07/18 00:06:29;;;;;;;1.77;1.17;;;;;;;20.16;79.46;101733.94;20263655;29;20088;-68
2023/07/18 00:16:31;;;;;;;2.55;1.38;;;;;;;20.17;79.65;101727.56;20261400;29;20062;-68
2023/07/18 00:26:33;;;;;;;2.38;1.30;;;;;;;20.11;79.36;101731.66;20262038;29;20088;-68
2023/07/18 00:36:35;;;;;;;2.65;1.65;;;;;;;20.14;79.51;101734.94;20261286;29;20063;-68
2023/07/18 00:46:36;;;;;;;1.65;1.20;;;;;;;20.13;79.74;101732.38;20259339;29;20132;-68
2023/07/18 00:56:38;;;;;;;2.30;1.25;;;;;;;20.10;77.53;101728.09;20259014;29;20068;-68
2023/07/18 01:06:40;;;;;;;2.90;1.67;;;;;;;20.02;77.12;101711.66;20259318;29;20063;-68
2023/07/18 01:16:42;;;;;;;1.90;1.35;;;;;;;20.08;76.65;101724.66;20242684;29;20056;-67
2023/07/18 01:26:45;;;;;;;2.70;1.50;;;;;;;20.07;76.60;101725.63;20269645;29;20053;-68
2023/07/18 01:36:47;;;;;;;1.77;1.30;;;;;;;20.06;76.31;101729.34;20274397;29;20501;-68
2023/07/18 01:46:48;;;;;;;2.58;1.58;;;;;;;20.05;76.28;101714.09;20272305;29;20048;-68
2023/07/18 01:56:50;;;;;;;1.75;1.10;;;;;;;20.05;76.15;101702.41;20272640;29;20063;-68
2023/07/18 02:06:53;;;;;;;1.45;1.25;;;;;;;20.04;76.33;101700.72;20251866;29;20069;-68
2023/07/18 02:16:54;;;;;;;2.10;1.20;;;;;;;20.03;76.40;101697.16;20227884;29;20095;-68
2023/07/18 02:26:57;;;;;;;3.22;1.27;;;;;;;19.98;76.55;101691.28;20237168;29;20048;-68
2023/07/18 02:36:59;;;;;;;2.10;1.23;;;;;;;20.03;76.68;101701.69;20250899;29;20462;-68
2023/07/18 02:47:02;;;;;;;3.50;1.45;;;;;;;20.00;76.24;101694.72;20262851;29;20051;-68
2023/07/18 02:57:04;;;;;;;2.30;1.20;;;;;;;19.97;76.70;101695.81;20251632;29;20064;-68
2023/07/18 03:07:07;;;;;;;1.75;1.40;;;;;;;20.00;76.28;101694.72;20266490;29;20053;-68
2023/07/18 03:17:08;;;;;;;2.88;1.08;;;;;;;19.99;76.58;101704.66;20267182;29;20112;-68
2023/07/18 03:27:12;;;;;;;2.90;1.27;;;;;;;19.99;76.26;101699.25;20266291;29;20131;-68
2023/07/18 03:37:14;;;;;;;2.10;1.40;;;;;;;19.98;76.71;101694.84;20265346;29;20075;-68
2023/07/18 03:47:16;;;;;;;2.67;1.60;;;;;;;19.97;77.14;101690.41;20263880;29;20111;-68
2023/07/18 03:57:22;;;;;;;3.00;1.30;;;;;;;19.98;76.89;101704.81;20262995;29;20052;-68
2023/07/18 04:07:24;;;;;;;1.98;1.23;;;;;;;19.97;77.09;101700.38;20263250;29;20470;-68
2023/07/18 04:17:27;;;;;;;1.73;1.20;;;;;;;19.95;76.88;101700.50;20260850;29;20433;-68
2023/07/18 04:27:29;;;;;;;3.38;1.40;;;;;;;19.94;77.06;101695.25;20262107;29;20053;-68
2023/07/18 04:37:31;;;;;;;2.22;1.25;;;;;;;19.94;76.37;101695.25;20256802;29;20532;-69
2023/07/18 04:47:33;;;;;;;2.05;1.20;;;;;;;19.97;77.13;101689.59;20238766;29;20737;-71
2023/07/18 04:57:34;;;;;;;2.55;1.45;;;;;;;20.01;77.48;101685.63;20230932;29;20132;-70
2023/07/18 05:07:36;;;;;;;4.68;1.77;;;;;;;20.03;77.09;101689.06;20240275;29;20048;-66
2023/07/18 05:17:38;;;;;;;5.03;1.25;;;;;;;20.05;76.96;101686.19;20258768;29;20057;-68
2023/07/18 05:27:41;;;;;;;5.18;1.60;;;;;;;20.05;76.88;101692.47;20259241;29;20051;-68
2023/07/18 05:37:44;;;;;;;4.00;1.43;;;;;;;20.08;77.00;101692.22;20258436;29;20056;-68
2023/07/18 05:47:46;;;;;;;3.17;1.40;;;;;;;20.05;77.14;101687.06;20257408;29;20060;-69
2023/07/18 05:57:48;;;;;;;2.30;1.20;;;;;;;20.14;77.27;101696.25;20256793;29;20060;-68
2023/07/18 06:07:49;;;;;;;2.40;1.10;;;;;;;20.18;77.67;101696.81;20260868;29;20054;-68
2023/07/18 06:17:51;;;;;;;2.90;1.20;;;;;;;20.19;77.77;101691.31;20271204;29;20096;-69
2023/07/18 06:27:53;;;;;;;3.60;1.15;;;;;;;20.23;77.94;101698.16;20270299;29;20103;-68
2023/07/18 06:37:55;;;;;;;3.53;1.30;;;;;;;20.27;78.02;101699.59;20269763;29;20052;-68
2023/07/18 06:47:56;;;;;;;3.83;1.13;;;;;;;20.40;77.97;101707.50;20267948;29;20108;-68
2023/07/18 06:57:59;;;;;;;3.10;1.30;;;;;;;20.42;78.11;101710.94;20266791;29;20048;-68
2023/07/18 07:08:01;;;;;;;2.83;1.10;;;;;;;20.39;78.79;101704.94;20267997;29;20502;-68
2023/07/18 07:18:03;;;;;;;2.83;1.15;;;;;;;20.48;79.57;101711.38;20266240;29;20092;-68
2023/07/18 07:28:05;;;;;;;3.63;1.35;;;;;;;20.53;79.59;101701.03;20265896;29;20175;-69
2023/07/18 07:38:06;;;;;;;2.33;1.23;;;;;;;20.75;79.18;101699.13;20264943;29;20076;-69
2023/07/18 07:48:08;;;;;;;3.20;1.20;;;;;;;21.08;78.77;101689.00;20263718;29;20060;-69
2023/07/18 07:58:10;;;;;;;4.90;1.20;;;;;;;21.40;77.01;101690.66;20263756;29;20135;-69
2023/07/18 08:08:13;;;;;;;3.03;1.20;;;;;;;21.37;77.71;101688.22;20262503;29;20051;-69
2023/07/18 08:18:15;;;;;;;4.00;1.38;;;;;;;21.76;77.48;101688.28;20262020;29;20049;-69
2023/07/18 08:28:16;;;;;;;3.85;1.10;;;;;;;22.38;75.00;101677.03;20244016;29;20072;-69
2023/07/18 08:38:18;;;;;;;3.83;1.20;;;;;;;22.10;75.13;101673.41;20259148;29;20048;-69
2023/07/18 08:48:21;;;;;;;4.55;1.13;;;;;;;21.52;77.18;101659.72;20260543;29;20429;-69
2023/07/18 08:58:25;;;;;;;3.47;1.20;;;;;;;21.30;79.96;101653.59;20260185;29;20059;-69
2023/07/18 09:08:27;;;;;;;4.43;1.20;;;;;;;21.22;79.77;101639.91;20258010;29;20517;-69
2023/07/18 09:18:29;;;;;;;2.13;1.00;;;;;;;21.19;79.37;101636.59;20259151;29;20067;-69
2023/07/18 09:28:31;;;;;;;5.10;1.42;;;;;;;21.14;79.25;101623.47;20258813;29;20048;-69
2023/07/18 09:38:34;;;;;;;2.60;1.10;;;;;;;21.19;78.74;101623.91;20257379;29;20121;-69
2023/07/18 09:48:36;;;;;;;3.40;1.00;;;;;;;21.12;81.54;101615.50;20270949;29;20048;-69
2023/07/18 09:58:42;;;;;;;2.55;1.30;;;;;;;21.22;82.49;101606.53;20267182;29;20052;-69
2023/07/18 10:08:44;;;;;;;3.37;1.00;;;;;;;21.20;79.52;101595.84;20255810;29;20086;-69
2023/07/18 10:18:47;;;;;;;2.88;0.90;;;;;;;21.25;79.01;101599.00;20245229;29;20056;-69
2023/07/18 10:28:49;;;;;;;1.25;0.60;;;;;;;21.26;78.10;101589.88;20235278;29;20057;-69
2023/07/18 10:38:51;;;;;;;1.48;0.70;;;;;;;21.28;76.86;101581.59;20260023;29;20057;-69
2023/07/18 10:48:54;;;;;;;1.27;0.68;;;;;;;21.29;77.04;101576.03;20248198;29;20059;-69
2023/07/18 10:58:56;;;;;;;1.67;0.80;;;;;;;21.30;77.83;101561.50;20245569;29;20041;-69
2023/07/18 11:08:57;;;;;;;1.90;1.17;;;;;;;21.31;76.94;101543.38;20251404;29;20049;-69
2023/07/18 11:18:59;;;;;;;1.40;0.60;;;;;;;21.29;79.35;101531.84;20257044;29;20132;-68
2023/07/18 11:29:03;;;;;;;1.98;0.60;;;;;;;21.30;78.72;101526.31;20228473;29;20048;-69
2023/07/18 11:39:19;;;;;;;0.93;0.60;;;;;;;21.33;76.33;101510.75;20225016;29;20059;-69
2023/07/18 11:49:33;;;;;;;1.45;0.52;;;;;;;21.37;74.12;101501.34;20223764;29;20049;-70
2023/07/18 11:59:35;;;;;;;2.90;0.65;;;;;;;21.41;73.81;101494.63;20216870;29;20286;-69
2023/07/18 12:09:37;;;;;;;1.95;0.60;;;;;;;21.46;72.71;101477.97;20204563;29;20832;-69
2023/07/18 12:19:38;;;;;;;0.82;0.55;;;;;;;21.49;72.89;101481.22;20252314;29;20163;-71
2023/07/18 12:29:42;;;;;;;1.23;0.73;;;;;;;21.43;72.67;101476.38;20247096;29;20058;-71
2023/07/18 12:39:43;;;;;;;1.58;0.52;;;;;;;21.49;73.05;101464.97;20225641;29;20052;-69
2023/07/18 12:49:45;;;;;;;2.03;0.77;;;;;;;21.44;72.55;101467.25;20256186;29;20056;-69
2023/07/18 12:59:50;;;;;;;1.33;0.70;;;;;;;21.39;72.58;101453.31;20251034;29;20091;-69
2023/07/18 13:09:52;;;;;;;1.63;0.57;;;;;;;21.33;71.95;101453.88;20232392;29;20497;-69
2023/07/18 13:19:54;;;;;;;0.50;0.40;;;;;;;21.29;71.70;101456.91;20245560;29;20044;-68
2023/07/18 13:29:55;;;;;;;1.23;0.47;;;;;;;21.30;71.71;101455.91;20242419;29;20048;-70
2023/07/18 13:39:57;;;;;;;0.70;0.40;;;;;;;21.29;71.28;101448.78;20241923;29;20056;-70
2023/07/18 13:49:58;;;;;;;2.15;0.80;;;;;;;21.30;72.30;101450.47;20245416;29;20488;-70
2023/07/18 14:00:00;;;;;;;3.17;0.93;;;;;;;21.32;72.59;101441.34;20277742;29;20048;-70
2023/07/18 14:10:13;;;;;;;2.38;0.85;;;;;;;21.35;72.64;101447.31;20245614;29;20536;-70
2023/07/18 14:20:14;;;;;;;1.52;0.73;;;;;;;21.32;72.89;101420.53;20222999;29;20412;-70
2023/07/18 14:30:17;;;;;;;2.30;0.60;;;;;;;21.40;73.04;101411.69;20255925;29;20041;-70
2023/07/18 14:40:19;;;;;;;5.70;1.13;;;;;;;21.39;73.44;101389.13;20221021;29;20079;-67
2023/07/18 14:50:23;;;;;;;3.08;0.60;;;;;;;21.40;74.32;101390.00;20197259;29;20057;-75
2023/07/18 15:00:24;;;;;;;1.88;0.57;;;;;;;21.50;75.47;101369.16;20208116;29;20057;-68
2023/07/18 15:10:26;;;;;;;1.00;0.88;;;;;;;21.59;76.35;101356.56;20203889;29;20130;-68
2023/07/18 15:20:28;;;;;;;2.72;1.20;;;;;;;21.71;83.45;101346.44;20219498;29;20064;-69
2023/07/18 15:30:30;;;;;;;2.88;1.20;;;;;;;21.72;84.83;101350.84;20198293;29;20052;-68
2023/07/18 15:40:31;;;;;;;2.20;0.85;;;;;;;21.70;84.54;101337.44;20208454;29;20048;-67
2023/07/18 15:50:33;;;;;;;2.38;0.95;;;;;;;21.69;84.02;101329.47;20213590;29;20422;-67
2023/07/18 16:00:35;;;;;;;1.52;0.90;;;;;;;21.66;84.10;101330.59;20195618;29;20754;-71
2023/07/18 16:10:37;;;;;;;3.72;0.90;;;;;;;21.63;84.11;101330.00;20211559;29;20041;-63
2023/07/18 16:20:38;;;;;;;1.77;0.80;;;;;;;21.56;83.91;101322.50;20254286;29;20061;-61
2023/07/18 16:30:40;;;;;;;2.92;0.77;;;;;;;21.46;83.30;101304.59;20252837;29;20101;-62
2023/07/18 16:40:42;;;;;;;3.22;0.73;;;;;;;21.43;81.71;101316.59;20233489;29;20513;-62
2023/07/18 16:50:43;;;;;;;3.92;1.20;;;;;;;21.38;80.96;101318.88;20228711;29;20505;-62
2023/07/18 17:00:46;;;;;;;2.25;1.05;;;;;;;21.34;81.37;101315.63;20247712;29;20090;-62
2023/07/18 17:10:47;;;;;;;3.65;0.93;;;;;;;21.30;81.18;101306.94;20233663;29;20049;-62
2023/07/18 17:20:49;;;;;;;2.95;1.23;;;;;;;21.25;80.78;101290.31;20227835;29;20092;-63
2023/07/18 17:30:50;;;;;;;3.15;1.23;;;;;;;21.23;81.69;101297.72;20245359;29;20051;-62
2023/07/18 17:40:52;;;;;;;6.18;1.17;;;;;;;21.22;82.17;101290.59;20258510;29;20053;-62
2023/07/18 17:50:54;;;;;;;3.35;1.02;;;;;;;21.20;82.21;101283.63;20255390;29;20132;-62
2023/07/18 18:00:56;;;;;;;1.60;0.85;;;;;;;21.16;82.04;101283.03;20256509;29;20053;-62
2023/07/18 18:10:57;;;;;;;2.90;1.25;;;;;;;21.14;82.12;101271.50;20272147;29;20053;-62
2023/07/18 18:21:00;;;;;;;2.80;1.33;;;;;;;21.11;82.07;101269.97;20271375;29;20069;-62
2023/07/18 18:31:03;;;;;;;2.05;1.10;;;;;;;21.08;81.78;101277.53;20270419;29;20048;-62
2023/07/18 18:41:05;;;;;;;2.35;1.30;;;;;;;21.09;84.28;101273.81;20269557;29;20048;-63
2023/07/18 18:51:07;;;;;;;3.25;1.33;;;;;;;21.09;84.66;101263.84;20269286;29;20391;-63
2023/07/18 19:01:08;;;;;;;2.42;1.60;;;;;;;20.90;84.13;101224.19;20268344;29;20057;-63
2023/07/18 19:11:10;;;;;;;2.30;1.30;;;;;;;21.08;84.15;101245.91;20268220;29;20120;-63
2023/07/18 19:21:11;;;;;;;2.28;1.27;;;;;;;21.07;84.20;101233.38;20265482;29;20112;-63
2023/07/18 19:31:13;;;;;;;2.85;1.25;;;;;;;21.06;84.44;101236.22;20266102;29;20579;-63
2023/07/18 19:41:15;;;;;;;3.00;1.58;;;;;;;21.05;84.39;101239.94;20266622;29;20144;-62
2023/07/18 19:51:17;;;;;;;2.10;0.98;;;;;;;21.03;84.31;101248.22;20265178;29;20535;-63
2023/07/18 20:01:19;;;;;;;2.10;1.00;;;;;;;21.00;84.19;101249.34;20262930;29;20120;-63
2023/07/18 20:11:21;;;;;;;2.20;1.10;;;;;;;20.93;83.92;101247.38;20264317;29;20159;-62
2023/07/18 20:21:23;;;;;;;2.25;1.00;;;;;;;20.95;84.01;101239.97;20262823;29;20060;-62
2023/07/18 20:31:25;;;;;;;1.90;1.00;;;;;;;20.95;83.86;101253.50;20261442;29;20116;-62
2023/07/18 20:41:27;;;;;;;2.30;1.00;;;;;;;20.91;83.50;101239.44;20260131;29;20112;-62
2023/07/18 20:51:29;;;;;;;1.58;0.90;;;;;;;20.88;83.65;101218.06;20261266;29;20052;-63
2023/07/18 21:01:31;;;;;;;2.17;1.13;;;;;;;20.86;83.72;101211.97;20258862;29;20063;-63
2023/07/18 21:11:33;;;;;;;1.23;1.00;;;;;;;20.84;83.71;101184.19;20258792;29;20052;-62
2023/07/18 21:21:34;;;;;;;1.75;1.00;;;;;;;20.67;83.65;101183.94;20259759;29;20061;-63
2023/07/18 21:31:36;;;;;;;1.58;1.10;;;;;;;20.82;83.71;101208.69;20259253;29;20083;-63
2023/07/18 21:41:38;;;;;;;1.63;0.90;;;;;;;20.81;83.95;101208.84;20267742;29;20061;-63
2023/07/18 21:51:40;;;;;;;1.35;1.08;;;;;;;20.81;83.98;101209.69;20274603;29;20064;-63
2023/07/18 22:01:41;;;;;;;1.30;0.93;;;;;;;20.80;84.13;101205.28;20273603;29;20135;-62
2023/07/18 22:11:43;;;;;;;1.98;0.90;;;;;;;20.79;84.11;101195.44;20272491;29;20057;-63
2023/07/18 22:21:45;;;;;;;0.80;0.70;;;;;;;20.79;84.00;101190.03;20272320;29;20124;-62
2023/07/18 22:31:46;;;;;;;2.03;1.00;;;;;;;20.76;83.80;101171.38;20269929;29;20517;-62
2023/07/18 22:41:48;;;;;;;1.10;1.00;;;;;;;20.76;83.75;101173.22;20270569;29;20414;-63
2023/07/18 22:51:49;;;;;;;1.77;0.90;;;;;;;20.73;83.73;101172.50;20269083;29;20592;-62
2023/07/18 23:01:51;;;;;;;2.28;1.23;;;;;;;20.73;83.96;101168.97;20269499;29;20130;-63
2023/07/18 23:11:54;;;;;;;1.95;1.33;;;;;;;20.71;83.81;101158.28;20268382;29;20420;-62
2023/07/18 23:21:55;;;;;;;1.52;1.08;;;;;;;20.70;84.03;101142.22;20267368;29;20127;-63
2023/07/18 23:31:57;;;;;;;1.60;1.10;;;;;;;20.65;83.14;101131.00;20267272;29;20140;-62
2023/07/18 23:41:59;;;;;;;1.02;0.85;;;;;;;20.64;82.99;101123.88;20265785;29;20085;-62
2023/07/18 23:52:01;;;;;;;1.15;1.00;;;;;;;20.61;83.02;101118.75;20263671;29;20144;-62
